Time;durP1;ratioP1;P1;durP2;ratioP2;P2;SDS_P1;SDS_P2;PMS_P1;PMS_P2;Temp;Humidity;BMP_temperature;BMP_pressure;BME280_temperature;BME280_humidity;BME280_pressure;Samples;Min_cycle;Max_cycle;Signal;HPM_P1;HPM_P2
2022/12/07 00:01:14;;;;;;;;;;;;;;;;;;4421193;32;20657;-80
2022/12/07 00:03:41;;;;;;;15.55;3.78;;;;;;;;;;4436094;32;19944;-78
2022/12/07 00:06:07;;;;;;;8.30;3.42;;;;;;;;;;4437242;32;20093;-77
2022/12/07 00:08:34;;;;;;;13.10;4.32;;;;;;;;;;4435655;32;20034;-77
2022/12/07 00:11:07;;;;;;;11.15;3.12;;;;;;;;;;4438109;32;20064;-78
2022/12/07 00:13:33;;;;;;;9.93;3.37;;;;;;;;;;4438944;32;20160;-80
2022/12/07 00:16:06;;;;;;;14.23;3.37;;;;;;;;;;4440677;32;20030;-78
2022/12/07 00:18:32;;;;;;;10.95;3.53;;;;;;;;;;4438343;32;20037;-79
2022/12/07 00:20:57;;;;;;;;;;;;;;;;;;4439113;32;20045;-79
2022/12/07 00:23:22;;;;;;;15.55;3.75;;;;;;;;;;4439355;32;19932;-79
2022/12/07 00:25:49;;;;;;;;;;;;;;;;;;4439096;32;20117;-79
2022/12/07 00:28:14;;;;;;;7.10;2.70;;;;;;;;;;4424544;32;19968;-79
2022/12/07 00:30:39;;;;;;;;;;;;;;;;;;4439663;32;20030;-79
2022/12/07 00:33:04;;;;;;;14.57;3.50;;;;;;;;;;4440005;32;20033;-80
2022/12/07 00:35:29;;;;;;;;;;;;;;;;;;4442214;32;20133;-79
2022/12/07 00:37:55;;;;;;;14.10;3.10;;;;;;;;;;4439347;32;19987;-80
2022/12/07 00:40:20;;;;;;;;;;;;;;;;;;4438739;32;20042;-80
2022/12/07 00:42:45;;;;;;;11.50;2.70;;;;;;;;;;4438949;32;19933;-80
2022/12/07 00:45:10;;;;;;;;;;;;;;;;;;4440739;32;20185;-80
2022/12/07 00:47:35;;;;;;;9.95;2.33;;;;;;;;;;4439153;32;19932;-80
2022/12/07 00:50:00;;;;;;;14.98;3.50;;;;;;;;;;4439249;32;20112;-79
2022/12/07 00:52:26;;;;;;;;;;;;;;;;;;4438508;32;20079;-79
2022/12/07 00:54:51;;;;;;;11.80;3.15;;;;;;;;;;4424154;32;20324;-80
2022/12/07 00:57:16;;;;;;;;;;;;;;;;;;4438332;32;20129;-80
2022/12/07 00:59:41;;;;;;;10.98;2.37;;;;;;;;;;4423436;32;20262;-80
2022/12/07 01:02:06;;;;;;;13.38;2.95;;;;;;;;;;4438141;32;20072;-80
2022/12/07 01:04:31;;;;;;;;;;;;;;;;;;4439450;32;20384;-80
2022/12/07 01:06:56;;;;;;;9.77;2.80;;;;;;;;;;4438925;32;20322;-81
2022/12/07 01:09:21;;;;;;;;;;;;;;;;;;4437973;32;20121;-80
2022/12/07 01:11:47;;;;;;;17.80;2.97;;;;;;;;;;4424237;32;19952;-79
2022/12/07 01:14:12;;;;;;;5.93;1.83;;;;;;;;;;4424014;32;20419;-79
2022/12/07 01:16:37;;;;;;;;;;;;;;;;;;4439504;32;20482;-79
2022/12/07 01:19:04;;;;;;;14.57;1.58;;;;;;;;;;4439020;32;19945;-80
2022/12/07 01:21:34;;;;;;;10.30;1.95;;;;;;;;;;4438806;32;20120;-79
2022/12/07 01:23:59;;;;;;;14.13;1.83;;;;;;;;;;4424963;32;20025;-80
2022/12/07 01:26:24;;;;;;;;;;;;;;;;;;4438158;32;20437;-79
2022/12/07 01:28:50;;;;;;;7.30;1.52;;;;;;;;;;4438242;32;19947;-79
2022/12/07 01:31:15;;;;;;;;;;;;;;;;;;4437976;32;20346;-80
2022/12/07 01:33:41;;;;;;;11.32;2.10;;;;;;;;;;4438121;32;19980;-79
2022/12/07 01:36:06;;;;;;;;;;;;;;;;;;4438063;32;20041;-79
2022/12/07 01:38:32;;;;;;;10.70;1.75;;;;;;;;;;4439411;32;19952;-79
2022/12/07 01:40:57;;;;;;;8.23;1.42;;;;;;;;;;4438434;32;20471;-76
2022/12/07 01:43:22;;;;;;;;;;;;;;;;;;4441415;32;20050;-76
2022/12/07 01:45:48;;;;;;;10.73;1.95;;;;;;;;;;4442885;32;19966;-78
2022/12/07 01:48:14;;;;;;;9.57;1.40;;;;;;;;;;4441012;32;20026;-77
2022/12/07 01:50:40;;;;;;;8.00;1.58;;;;;;;;;;4442830;32;20067;-78
2022/12/07 01:53:05;;;;;;;;;;;;;;;;;;4438529;32;20029;-78
2022/12/07 01:55:30;;;;;;;5.78;1.40;;;;;;;;;;4439393;32;19955;-78
2022/12/07 01:57:55;;;;;;;;;;;;;;;;;;4439396;32;20148;-78
2022/12/07 02:00:21;;;;;;;10.57;2.80;;;;;;;;;;4437253;32;19963;-78
2022/12/07 02:02:55;;;;;;;8.02;1.70;;;;;;;;;;4437277;32;20152;-78
2022/12/07 02:05:20;;;;;;;6.22;1.67;;;;;;;;;;4436630;32;20038;-78
2022/12/07 02:07:45;;;;;;;;;;;;;;;;;;4436483;32;20025;-77
2022/12/07 02:10:18;;;;;;;13.82;2.95;;;;;;;;;;4436882;32;19948;-77
2022/12/07 02:12:45;;;;;;;11.45;1.80;;;;;;;;;;4437687;32;20185;-77
2022/12/07 02:15:11;;;;;;;8.13;1.90;;;;;;;;;;4438317;32;20075;-78
2022/12/07 02:17:36;;;;;;;;;;;;;;;;;;4438930;32;20038;-78
2022/12/07 02:20:13;;;;;;;7.97;2.15;;;;;;;;;;4436657;32;19995;-77
2022/12/07 02:22:38;;;;;;;7.45;1.73;;;;;;;;;;4437758;32;20077;-77
2022/12/07 02:25:04;;;;;;;;;;;;;;;;;;4436926;32;20103;-77
2022/12/07 02:27:47;;;;;;;7.50;1.62;;;;;;;;;;4435801;32;19977;-77
2022/12/07 02:30:13;;;;;;;8.05;1.60;;;;;;;;;;4437294;32;20586;-78
2022/12/07 02:32:38;;;;;;;;;;;;;;;;;;4436052;32;20025;-77
2022/12/07 02:35:18;;;;;;;14.77;2.50;;;;;;;;;;4436909;32;19940;-77
2022/12/07 02:37:59;;;;;;;4.40;1.35;;;;;;;;;;4420894;32;20166;-77
2022/12/07 02:40:31;;;;;;;10.15;2.20;;;;;;;;;;4435987;32;20081;-77
2022/12/07 02:43:07;;;;;;;15.90;2.40;;;;;;;;;;4424273;32;20438;-77
2022/12/07 02:45:34;;;;;;;5.87;1.55;;;;;;;;;;4423241;32;20033;-76
2022/12/07 02:48:00;;;;;;;14.40;2.97;;;;;;;;;;4426884;32;20292;-76
2022/12/07 02:50:26;;;;;;;12.65;1.45;;;;;;;;;;4423776;32;20051;-78
2022/12/07 02:52:51;;;;;;;;;;;;;;;;;;4437378;32;20033;-77
2022/12/07 02:55:19;;;;;;;12.80;2.60;;;;;;;;;;4421462;32;19967;-77
2022/12/07 02:58:01;;;;;;;9.85;1.77;;;;;;;;;;4420741;32;20057;-77
2022/12/07 03:00:26;;;;;;;9.48;1.95;;;;;;;;;;4420343;32;20041;-78
2022/12/07 03:02:52;;;;;;;;;;;;;;;;;;4435097;32;20064;-78
2022/12/07 03:05:23;;;;;;;11.77;1.60;;;;;;;;;;4435117;32;20006;-78
2022/12/07 03:07:54;;;;;;;11.75;1.75;;;;;;;;;;4435003;32;20075;-77
2022/12/07 03:10:22;;;;;;;4.45;1.77;;;;;;;;;;4434824;32;20457;-80
2022/12/07 03:12:57;;;;;;;10.55;2.08;;;;;;;;;;4434991;32;20028;-80
2022/12/07 03:15:33;;;;;;;11.35;2.17;;;;;;;;;;4436541;32;20074;-80
2022/12/07 03:18:00;;;;;;;7.28;1.50;;;;;;;;;;4423143;32;20026;-80
2022/12/07 03:20:26;;;;;;;9.55;1.85;;;;;;;;;;4435546;32;20042;-80
2022/12/07 03:22:51;;;;;;;;;;;;;;;;;;4438171;32;20088;-80
2022/12/07 03:25:17;;;;;;;8.02;1.30;;;;;;;;;;4436014;32;19947;-79
2022/12/07 03:27:45;;;;;;;6.65;1.33;;;;;;;;;;4436183;32;20029;-79
2022/12/07 03:30:16;;;;;;;10.15;1.70;;;;;;;;;;4436376;32;20097;-80
2022/12/07 03:32:45;;;;;;;4.25;1.40;;;;;;;;;;4435374;32;20072;-79
2022/12/07 03:35:22;;;;;;;8.38;1.70;;;;;;;;;;4434324;32;20067;-79
2022/12/07 03:37:50;;;;;;;9.88;1.75;;;;;;;;;;4420656;32;20407;-80
2022/12/07 03:40:35;;;;;;;13.07;2.30;;;;;;;;;;4433929;32;20022;-80
2022/12/07 03:43:01;;;;;;;5.68;1.52;;;;;;;;;;4420706;32;20022;-82
2022/12/07 03:45:32;;;;;;;16.42;3.95;;;;;;;;;;4421383;32;20060;-81
2022/12/07 03:48:05;;;;;;;10.75;2.55;;;;;;;;;;4420621;32;20292;-81
2022/12/07 03:50:35;;;;;;;12.75;2.00;;;;;;;;;;4420814;32;20042;-81
2022/12/07 03:53:04;;;;;;;11.65;1.62;;;;;;;;;;4420278;32;20090;-80
2022/12/07 03:55:31;;;;;;;9.95;1.85;;;;;;;;;;4420062;32;20030;-80
2022/12/07 03:58:01;;;;;;;10.63;2.08;;;;;;;;;;4421117;32;20030;-81
2022/12/07 04:00:26;;;;;;;11.98;2.60;;;;;;;;;;4420108;32;20030;-80
2022/12/07 04:02:51;;;;;;;;;;;;;;;;;;4420790;32;20075;-80
2022/12/07 04:05:16;;;;;;;7.28;1.35;;;;;;;;;;4419932;32;19951;-80
2022/12/07 04:07:41;;;;;;;5.72;1.67;;;;;;;;;;4420065;32;20082;-80
2022/12/07 04:10:06;;;;;;;;;;;;;;;;;;4432624;32;20449;-79
2022/12/07 04:12:32;;;;;;;7.45;1.30;;;;;;;;;;4435129;32;19951;-80
2022/12/07 04:14:57;;;;;;;;;;;;;;;;;;4436171;32;20548;-79
2022/12/07 04:17:22;;;;;;;7.74;1.32;;;;;;;;;;4434922;32;19940;-80
2022/12/07 04:19:47;;;;;;;;;;;;;;;;;;4435007;32;20386;-80
2022/12/07 04:22:12;;;;;;;9.50;1.83;;;;;;;;;;4436409;32;20361;-80
2022/12/07 04:24:37;;;;;;;;;;;;;;;;;;4435406;32;20162;-80
2022/12/07 04:27:03;;;;;;;9.25;1.70;;;;;;;;;;4421293;32;20022;-80
2022/12/07 04:29:28;;;;;;;;;;;;;;;;;;4436430;32;20392;-79
2022/12/07 04:31:53;;;;;;;9.02;1.80;;;;;;;;;;4420959;32;20344;-79
2022/12/07 04:34:18;;;;;;;;;;;;;;;;;;4435771;32;20121;-79
2022/12/07 04:36:44;;;;;;;12.82;3.38;;;;;;;;;;4434657;32;19964;-79
2022/12/07 04:39:09;;;;;;;;;;;;;;;;;;4434297;32;20436;-79
2022/12/07 04:41:34;;;;;;;7.47;1.58;;;;;;;;;;4420654;32;19988;-79
2022/12/07 04:44:00;;;;;;;;;;;;;;;;;;4436418;32;20121;-79
2022/12/07 04:46:26;;;;;;;13.20;2.58;;;;;;;;;;4434365;32;19955;-79
2022/12/07 04:48:51;;;;;;;14.55;2.37;;;;;;;;;;4435215;32;20420;-79
2022/12/07 04:51:16;;;;;;;;;;;;;;;;;;4435873;32;20030;-78
2022/12/07 04:53:42;;;;;;;13.73;3.50;;;;;;;;;;4436970;32;20305;-78
2022/12/07 04:56:07;;;;;;;9.70;2.42;;;;;;;;;;4439541;32;20081;-78
2022/12/07 04:58:32;;;;;;;;;;;;;;;;;;4443816;32;20034;-78
2022/12/07 05:00:57;;;;;;;7.65;1.60;;;;;;;;;;4428996;32;20330;-79
2022/12/07 05:03:22;;;;;;;11.80;2.75;;;;;;;;;;4440142;32;20078;-79
2022/12/07 05:05:47;;;;;;;;;;;;;;;;;;4441114;32;20022;-79
2022/12/07 05:08:12;;;;;;;11.50;2.22;;;;;;;;;;4437920;32;19936;-77
2022/12/07 05:10:37;;;;;;;10.07;2.78;;;;;;;;;;4437201;32;20064;-78
2022/12/07 05:13:03;;;;;;;;;;;;;;;;;;4440325;32;20025;-78
2022/12/07 05:15:28;;;;;;;12.20;1.70;;;;;;;;;;4439370;32;19933;-77
2022/12/07 05:17:53;;;;;;;;;;;;;;;;;;4439513;32;20165;-78
2022/12/07 05:20:18;;;;;;;9.32;1.73;;;;;;;;;;4423612;32;19936;-78
2022/12/07 05:22:43;;;;;;;;;;;;;;;;;;4437037;32;20561;-77
2022/12/07 05:25:08;;;;;;;14.70;2.25;;;;;;;;;;4437355;32;19933;-78
2022/12/07 05:27:34;;;;;;;18.00;2.08;;;;;;;;;;4438040;32;20113;-77
2022/12/07 05:29:59;;;;;;;;;;;;;;;;;;4438041;32;20448;-78
2022/12/07 05:32:24;;;;;;;19.45;2.62;;;;;;;;;;4438236;32;19968;-78
2022/12/07 05:34:49;;;;;;;;;;;;;;;;;;4441831;32;20080;-78
2022/12/07 05:37:14;;;;;;;4.97;1.60;;;;;;;;;;4439257;32;20442;-79
2022/12/07 05:39:42;;;;;;;;;;;;;;;;;;4437806;32;20124;-77
2022/12/07 05:42:13;;;;;;;;;;;;;;;;;;4438773;32;20014;-78
2022/12/07 05:44:39;;;;;;;13.27;2.53;;;;;;;;;;4423900;32;19932;-77
2022/12/07 05:47:04;;;;;;;;;;;;;;;;;;4437590;32;20087;-77
2022/12/07 05:49:29;;;;;;;17.30;2.47;;;;;;;;;;4437120;32;19988;-78
2022/12/07 05:51:55;;;;;;;;;;;;;;;;;;4436724;32;20434;-78
2022/12/07 05:54:20;;;;;;;13.23;1.92;;;;;;;;;;4437596;32;19933;-77
2022/12/07 05:56:45;;;;;;;;;;;;;;;;;;4437756;32;20185;-78
2022/12/07 05:59:24;;;;;;;15.52;2.22;;;;;;;;;;4435889;32;19940;-77
2022/12/07 06:01:50;;;;;;;13.23;2.08;;;;;;;;;;4437237;32;20121;-77
2022/12/07 06:04:15;;;;;;;;;;;;;;;;;;4438185;32;20129;-77
2022/12/07 06:06:40;;;;;;;14.30;2.17;;;;;;;;;;4436286;32;19941;-77
2022/12/07 06:09:05;;;;;;;;;;;;;;;;;;4437220;32;20125;-77
2022/12/07 06:14:14;;;;;;;16.90;3.10;;;;;;;;;;4437677;32;20122;-78
2022/12/07 06:16:39;;;;;;;;;;;;;;;;;;4438259;32;20399;-77
2022/12/07 06:19:05;;;;;;;16.42;2.17;;;;;;;;;;4436215;32;20367;-78
2022/12/07 06:21:30;;;;;;;;;;;;;;;;;;4437908;32;20030;-76
2022/12/07 06:23:55;;;;;;;15.48;1.92;;;;;;;;;;4435536;32;20337;-77
2022/12/07 06:26:20;;;;;;;8.43;1.62;;;;;;;;;;4435642;32;20074;-77
2022/12/07 06:28:45;;;;;;;;;;;;;;;;;;4422895;32;20026;-78
2022/12/07 06:31:11;;;;;;;16.20;2.60;;;;;;;;;;4436858;32;19946;-77
2022/12/07 06:33:36;;;;;;;;;;;;;;;;;;4430773;32;20087;-76
2022/12/07 06:36:01;;;;;;;16.12;2.85;;;;;;;;;;4427595;32;20330;-77
2022/12/07 06:38:26;;;;;;;;;;;;;;;;;;4438202;32;20181;-77
2022/12/07 06:40:51;;;;;;;14.77;2.75;;;;;;;;;;4435202;32;19973;-77
2022/12/07 06:43:16;;;;;;;14.25;3.22;;;;;;;;;;4436042;32;20026;-77
2022/12/07 06:45:42;;;;;;;;;;;;;;;;;;4437229;32;20437;-76
2022/12/07 06:48:07;;;;;;;9.18;2.78;;;;;;;;;;4436672;32;19996;-76
2022/12/07 06:50:32;;;;;;;;;;;;;;;;;;4433990;32;20160;-76
2022/12/07 06:52:57;;;;;;;18.58;3.60;;;;;;;;;;4435375;32;19960;-77
2022/12/07 06:55:22;;;;;;;;;;;;;;;;;;4435735;32;20121;-76
2022/12/07 06:57:47;;;;;;;20.45;3.58;;;;;;;;;;4436837;32;19966;-76
2022/12/07 07:00:12;;;;;;;;;;;;;;;;;;4437570;32;20156;-78
2022/12/07 07:02:38;;;;;;;16.33;3.58;;;;;;;;;;4437206;32;19937;-79
2022/12/07 07:05:03;;;;;;;;;;;;;;;;;;4437476;32;20143;-78
2022/12/07 07:07:28;;;;;;;11.60;3.20;;;;;;;;;;4437023;32;19937;-79
2022/12/07 07:09:53;;;;;;;;;;;;;;;;;;4438322;32;20033;-79
2022/12/07 07:12:18;;;;;;;16.15;2.80;;;;;;;;;;4436843;32;19941;-79
2022/12/07 07:14:43;;;;;;;;;;;;;;;;;;4440034;32;20160;-77
2022/12/07 07:17:09;;;;;;;8.65;3.35;;;;;;;;;;4436990;32;19951;-78
2022/12/07 07:19:34;;;;;;;16.42;3.20;;;;;;;;;;4436767;32;20076;-78
2022/12/07 07:21:59;;;;;;;;;;;;;;;;;;4436409;32;20038;-78
2022/12/07 07:24:24;;;;;;;13.80;3.70;;;;;;;;;;4436503;32;19967;-78
2022/12/07 07:26:49;;;;;;;;;;;;;;;;;;4436750;32;20147;-78
2022/12/07 07:29:14;;;;;;;15.45;6.50;;;;;;;;;;4435963;32;19964;-78
2022/12/07 07:31:39;;;;;;;;;;;;;;;;;;4432097;32;20151;-77
2022/12/07 07:34:05;;;;;;;21.80;6.45;;;;;;;;;;4420968;32;19991;-78
2022/12/07 07:36:30;;;;;;;25.35;7.32;;;;;;;;;;4407215;32;20029;-79
2022/12/07 07:38:55;;;;;;;;;;;;;;;;;;4423681;32;20098;-78
2022/12/07 07:41:20;;;;;;;19.35;6.70;;;;;;;;;;4422097;32;20303;-78
2022/12/07 07:43:45;;;;;;;;;;;;;;;;;;4432684;32;20156;-78
2022/12/07 07:46:10;;;;;;;24.40;7.95;;;;;;;;;;4430100;32;19974;-79
2022/12/07 07:48:35;;;;;;;;;;;;;;;;;;4431392;32;20155;-80
2022/12/07 07:51:04;;;;;;;20.02;5.78;;;;;;;;;;4426185;32;19940;-80
2022/12/07 07:53:29;;;;;;;20.40;6.50;;;;;;;;;;4413597;32;20035;-79
2022/12/07 07:55:54;;;;;;;;;;;;;;;;;;4413680;32;20102;-80
2022/12/07 07:58:20;;;;;;;24.52;8.32;;;;;;;;;;4426435;32;19971;-78
2022/12/07 08:00:45;;;;;;;;;;;;;;;;;;4411306;32;20125;-78
2022/12/07 08:03:10;;;;;;;16.33;7.12;;;;;;;;;;4426820;32;20000;-79
2022/12/07 08:05:35;;;;;;;;;;;;;;;;;;4427405;32;20133;-79
2022/12/07 08:08:00;;;;;;;19.35;6.45;;;;;;;;;;4413307;32;19945;-79
2022/12/07 08:10:26;;;;;;;211.73;23.95;;;;;;;;;;4432977;32;20082;-78
2022/12/07 08:15:36;;;;;;;16.48;6.12;;;;;;;;;;4442849;32;20032;-78
2022/12/07 08:18:01;;;;;;;26.12;6.18;;;;;;;;;;4442179;32;20038;-78
2022/12/07 08:20:26;;;;;;;;;;;;;;;;;;4426500;32;20042;-78
2022/12/07 08:22:51;;;;;;;20.84;5.82;;;;;;;;;;4441293;32;19970;-78
2022/12/07 08:25:16;;;;;;;;;;;;;;;;;;4438960;32;20026;-78
2022/12/07 08:27:41;;;;;;;16.36;6.06;;;;;;;;;;4438604;32;19937;-79
2022/12/07 08:30:08;;;;;;;;;;;;;;;;;;4436324;32;20079;-78
2022/12/07 08:32:33;;;;;;;19.15;7.22;;;;;;;;;;4438994;32;19937;-80
2022/12/07 08:34:58;;;;;;;;;;;;;;;;;;4439098;32;20104;-79
2022/12/07 08:37:23;;;;;;;22.00;5.70;;;;;;;;;;4437926;32;19941;-80
2022/12/07 08:39:48;;;;;;;11.85;4.15;;;;;;;;;;4439634;32;20089;-79
2022/12/07 08:42:13;;;;;;;;;;;;;;;;;;4437842;32;20193;-79
2022/12/07 08:44:40;;;;;;;15.57;2.67;;;;;;;;;;4438636;32;19960;-79
2022/12/07 08:47:06;;;;;;;13.93;2.95;;;;;;;;;;4437251;32;20030;-78
2022/12/07 08:49:33;;;;;;;14.73;3.35;;;;;;;;;;4438731;32;20034;-79
2022/12/07 08:51:58;;;;;;;713.78;148.30;;;;;;;;;;4437141;32;20391;-78
2022/12/07 08:54:24;;;;;;;;;;;;;;;;;;4437143;32;20117;-79
2022/12/07 08:56:50;;;;;;;96.92;15.42;;;;;;;;;;4423321;32;19941;-78
2022/12/07 08:59:17;;;;;;;92.35;18.55;;;;;;;;;;4423537;32;20068;-78
2022/12/07 09:01:42;;;;;;;235.98;42.38;;;;;;;;;;4439046;32;20052;-78
2022/12/07 09:04:07;;;;;;;;;;;;;;;;;;4438490;32;20022;-77
2022/12/07 09:06:33;;;;;;;20.05;5.20;;;;;;;;;;4437332;32;19929;-78
2022/12/07 09:09:01;;;;;;;;;;;;;;;;;;4424182;32;20029;-78
2022/12/07 09:11:26;;;;;;;12.80;2.90;;;;;;;;;;4437345;32;19937;-77
2022/12/07 09:13:51;;;;;;;;;;;;;;;;;;4436598;32;20030;-77
2022/12/07 09:16:16;;;;;;;12.20;3.90;;;;;;;;;;4437314;32;20059;-77
2022/12/07 09:18:42;;;;;;;;;;;;;;;;;;4437306;32;20476;-75
2022/12/07 09:21:07;;;;;;;175.90;32.75;;;;;;;;;;4423120;32;19936;-77
2022/12/07 09:23:32;;;;;;;13.68;3.75;;;;;;;;;;4436733;32;20086;-77
2022/12/07 09:25:57;;;;;;;;;;;;;;;;;;4439531;32;20188;-77
2022/12/07 09:28:22;;;;;;;9.88;2.30;;;;;;;;;;4440829;32;19947;-76
2022/12/07 09:30:48;;;;;;;6.47;2.12;;;;;;;;;;4438360;32;20034;-76
2022/12/07 09:33:13;;;;;;;;;;;;;;;;;;4437795;32;20067;-78
2022/12/07 09:35:43;;;;;;;7.78;1.98;;;;;;;;;;4423732;32;19979;-80
2022/12/07 09:38:08;;;;;;;39.72;8.38;;;;;;;;;;4437605;32;20089;-79
2022/12/07 09:40:33;;;;;;;;;;;;;;;;;;4437086;32;20090;-79
2022/12/07 09:42:59;;;;;;;8.80;2.26;;;;;;;;;;4421015;32;19948;-79
2022/12/07 09:45:24;;;;;;;;;;;;;;;;;;4437981;32;20081;-79
2022/12/07 09:47:49;;;;;;;3.80;1.80;;;;;;;;;;4436583;32;19971;-79
2022/12/07 09:50:14;;;;;;;;;;;;;;;;;;4424638;32;20569;-79
2022/12/07 09:52:40;;;;;;;8.43;2.37;;;;;;;;;;4444361;32;19952;-80
2022/12/07 09:55:05;;;;;;;;;;;;;;;;;;4441518;32;20079;-78
2022/12/07 09:57:31;;;;;;;145.65;20.42;;;;;;;;;;4437186;32;20056;-79
2022/12/07 10:00:00;;;;;;;198.82;29.92;;;;;;;;;;4437647;32;20049;-79
2022/12/07 10:02:41;;;;;;;146.02;25.40;;;;;;;;;;4422145;32;20086;-78
2022/12/07 10:05:07;;;;;;;128.95;21.65;;;;;;;;;;4436816;32;20030;-79
2022/12/07 10:07:32;;;;;;;48.60;10.20;;;;;;;;;;4437235;32;20033;-78
2022/12/07 10:09:58;;;;;;;;;;;;;;;;;;4437682;32;20059;-79
2022/12/07 10:12:23;;;;;;;40.58;8.25;;;;;;;;;;4421891;32;19952;-79
2022/12/07 10:14:48;;;;;;;;;;;;;;;;;;4423931;32;20133;-78
2022/12/07 10:17:28;;;;;;;10.35;2.78;;;;;;;;;;4436041;32;20189;-78
2022/12/07 10:20:07;;;;;;;7.07;2.20;;;;;;;;;;4422861;32;20168;-77
2022/12/07 10:22:33;;;;;;;6.03;2.47;;;;;;;;;;4419999;32;20030;-78
2022/12/07 10:24:58;;;;;;;;;;;;;;;;;;4420218;32;20052;-78
2022/12/07 10:27:30;;;;;;;28.60;6.90;;;;;;;;;;4423965;32;19989;-79
2022/12/07 10:29:57;;;;;;;18.98;3.95;;;;;;;;;;4407385;32;20073;-79
2022/12/07 10:32:25;;;;;;;30.15;5.28;;;;;;;;;;4421403;32;20056;-77
2022/12/07 10:34:51;;;;;;;6.75;2.47;;;;;;;;;;4420483;32;20132;-78
2022/12/07 10:37:17;;;;;;;8.68;3.45;;;;;;;;;;4420371;32;20396;-77
2022/12/07 10:39:47;;;;;;;10.60;2.85;;;;;;;;;;4420640;32;20056;-77
2022/12/07 10:42:18;;;;;;;6.43;2.25;;;;;;;;;;4423204;32;20405;-77
2022/12/07 10:44:43;;;;;;;19.05;3.40;;;;;;;;;;4435215;32;20375;-79
2022/12/07 10:47:09;;;;;;;;;;;;;;;;;;4437196;32;20026;-79
2022/12/07 10:49:53;;;;;;;9.35;2.87;;;;;;;;;;4427486;32;20291;-78
2022/12/07 10:52:37;;;;;;;93.90;14.27;;;;;;;;;;4405722;32;20147;-78
2022/12/07 10:55:16;;;;;;;138.02;24.45;;;;;;;;;;4422019;32;20088;-77
2022/12/07 10:58:00;;;;;;;88.22;13.43;;;;;;;;;;4436871;32;20088;-78
2022/12/07 11:00:27;;;;;;;15.60;3.20;;;;;;;;;;4423393;32;20065;-76
2022/12/07 11:03:16;;;;;;;10.55;2.35;;;;;;;;;;4423326;32;20056;-77
2022/12/07 11:06:00;;;;;;;44.83;10.68;;;;;;;;;;4415430;32;20045;-77
2022/12/07 11:08:51;;;;;;;65.10;10.93;;;;;;;;;;4434088;32;20495;-76
2022/12/07 11:11:25;;;;;;;9.25;3.00;;;;;;;;;;4416928;32;20034;-76
2022/12/07 11:14:00;;;;;;;8.50;2.55;;;;;;;;;;4450086;32;20441;-76
2022/12/07 11:16:33;;;;;;;7.22;2.58;;;;;;;;;;4439111;32;20104;-76
2022/12/07 11:18:58;;;;;;;7.28;2.17;;;;;;;;;;4444888;32;20424;-76
2022/12/07 11:21:23;;;;;;;;;;;;;;;;;;4418018;32;20030;-76
2022/12/07 11:23:52;;;;;;;9.43;2.75;;;;;;;;;;4405453;32;19948;-76
2022/12/07 11:26:20;;;;;;;8.23;2.30;;;;;;;;;;4420519;32;20021;-75
2022/12/07 11:28:57;;;;;;;6.62;2.22;;;;;;;;;;4435466;32;20060;-75
2022/12/07 11:31:29;;;;;;;10.05;2.10;;;;;;;;;;4437618;32;20060;-76
2022/12/07 11:34:04;;;;;;;7.57;2.33;;;;;;;;;;4432647;32;20125;-76
2022/12/07 11:36:32;;;;;;;11.38;2.70;;;;;;;;;;4439791;32;20021;-75
2022/12/07 11:38:59;;;;;;;10.05;2.47;;;;;;;;;;4449317;32;20025;-76
2022/12/07 11:41:35;;;;;;;9.88;2.42;;;;;;;;;;4435161;32;20140;-74
2022/12/07 11:44:19;;;;;;;9.43;2.57;;;;;;;;;;4452538;32;20029;-73
2022/12/07 11:46:53;;;;;;;6.22;2.35;;;;;;;;;;4427882;32;20133;-74
2022/12/07 11:49:37;;;;;;;6.65;2.08;;;;;;;;;;4427291;32;20026;-74
2022/12/07 11:52:04;;;;;;;9.68;3.25;;;;;;;;;;4420171;32;20133;-75
2022/12/07 11:54:31;;;;;;;5.82;2.22;;;;;;;;;;4429239;32;20026;-73
2022/12/07 11:57:00;;;;;;;10.32;2.60;;;;;;;;;;4427363;32;20378;-76
2022/12/07 11:59:25;;;;;;;10.52;1.98;;;;;;;;;;4417078;32;20196;-75
2022/12/07 12:01:50;;;;;;;;;;;;;;;;;;4417646;32;20389;-74
2022/12/07 12:04:15;;;;;;;9.30;3.65;;;;;;;;;;4424439;32;19976;-75
2022/12/07 12:06:42;;;;;;;7.93;1.85;;;;;;;;;;4426112;32;20030;-75
2022/12/07 12:09:13;;;;;;;7.43;2.20;;;;;;;;;;4428869;32;20482;-76
2022/12/07 12:11:38;;;;;;;11.68;2.58;;;;;;;;;;4427953;32;20030;-75
2022/12/07 12:14:03;;;;;;;;;;;;;;;;;;4428855;32;20078;-75
2022/12/07 12:16:46;;;;;;;9.43;1.87;;;;;;;;;;4426289;32;19965;-72
2022/12/07 12:19:19;;;;;;;3.65;1.48;;;;;;;;;;4420542;32;20061;-73
2022/12/07 12:21:46;;;;;;;9.80;1.92;;;;;;;;;;4435446;32;20065;-74
2022/12/07 12:24:17;;;;;;;6.95;1.55;;;;;;;;;;4436357;32;20034;-74
2022/12/07 12:26:50;;;;;;;5.47;1.62;;;;;;;;;;4435730;32;20100;-74
2022/12/07 12:29:21;;;;;;;8.38;1.80;;;;;;;;;;4434565;32;20146;-73
2022/12/07 12:32:03;;;;;;;7.72;1.87;;;;;;;;;;4436288;32;20052;-74
2022/12/07 12:34:30;;;;;;;6.87;1.70;;;;;;;;;;4440190;32;20120;-76
2022/12/07 12:36:55;;;;;;;10.30;3.22;;;;;;;;;;4442726;32;20068;-75
2022/12/07 12:39:21;;;;;;;;;;;;;;;;;;4437813;32;20113;-75
2022/12/07 12:44:14;;;;;;;6.00;1.40;;;;;;;;;;4437867;32;20022;-74
2022/12/07 12:46:39;;;;;;;;;;;;;;;;;;4438457;32;20440;-75
2022/12/07 12:49:19;;;;;;;12.93;1.80;;;;;;;;;;4437682;32;19983;-75
2022/12/07 12:51:58;;;;;;;7.93;2.33;;;;;;;;;;4422802;32;20124;-74
2022/12/07 12:54:27;;;;;;;9.45;3.50;;;;;;;;;;4421164;32;20057;-74
2022/12/07 12:57:03;;;;;;;8.50;2.15;;;;;;;;;;4421287;32;20038;-74
2022/12/07 12:59:33;;;;;;;8.50;2.17;;;;;;;;;;4419502;32;20089;-74
2022/12/07 13:02:01;;;;;;;6.50;1.98;;;;;;;;;;4421412;32;20030;-73
2022/12/07 13:04:29;;;;;;;9.85;2.20;;;;;;;;;;4436691;32;20025;-73
2022/12/07 13:06:54;;;;;;;5.15;1.58;;;;;;;;;;4437715;32;20029;-73
2022/12/07 13:09:21;;;;;;;;;;;;;;;;;;4436878;32;20080;-74
2022/12/07 13:11:46;;;;;;;4.53;1.27;;;;;;;;;;4436494;32;19969;-74
2022/12/07 13:14:11;;;;;;;;;;;;;;;;;;4437257;32;20060;-73
2022/12/07 13:16:37;;;;;;;12.50;1.70;;;;;;;;;;4435752;32;19933;-75
2022/12/07 13:19:22;;;;;;;6.05;1.48;;;;;;;;;;4422883;32;20041;-74
2022/12/07 13:21:48;;;;;;;7.32;1.48;;;;;;;;;;4438159;32;20074;-74
2022/12/07 13:24:13;;;;;;;;;;;;;;;;;;4436454;32;20033;-75
2022/12/07 13:26:41;;;;;;;5.80;1.55;;;;;;;;;;4437760;32;19941;-74
2022/12/07 13:29:09;;;;;;;2.37;1.40;;;;;;;;;;4437312;32;20095;-74
2022/12/07 13:31:42;;;;;;;4.22;1.27;;;;;;;;;;4421390;32;20133;-74
2022/12/07 13:34:27;;;;;;;4.32;1.40;;;;;;;;;;4435642;32;20062;-74
2022/12/07 13:36:52;;;;;;;4.68;1.45;;;;;;;;;;4436308;32;20033;-74
2022/12/07 13:39:17;;;;;;;;;;;;;;;;;;4437181;32;20034;-74
2022/12/07 13:41:43;;;;;;;10.00;1.55;;;;;;;;;;4436527;32;19956;-74
2022/12/07 13:44:08;;;;;;;;;;;;;;;;;;4436470;32;20070;-74
2022/12/07 13:46:40;;;;;;;8.65;1.83;;;;;;;;;;4422160;32;19969;-74
2022/12/07 13:49:15;;;;;;;29.73;3.35;;;;;;;;;;4437412;32;20151;-73
2022/12/07 13:51:40;;;;;;;5.62;1.70;;;;;;;;;;4436538;32;20041;-75
2022/12/07 13:54:05;;;;;;;;;;;;;;;;;;4438181;32;20051;-73
2022/12/07 13:56:34;;;;;;;20.98;3.72;;;;;;;;;;4442353;32;19933;-72
2022/12/07 13:59:00;;;;;;;7.35;2.67;;;;;;;;;;4440735;32;20060;-73
2022/12/07 14:01:25;;;;;;;;;;;;;;;;;;4424104;32;20124;-74
2022/12/07 14:03:50;;;;;;;11.07;2.20;;;;;;;;;;4435259;32;20313;-73
2022/12/07 14:06:15;;;;;;;;;;;;;;;;;;4436784;32;20511;-73
2022/12/07 14:08:41;;;;;;;5.05;1.62;;;;;;;;;;4435414;32;19932;-74
2022/12/07 14:11:10;;;;;;;6.18;1.80;;;;;;;;;;4436552;32;20033;-74
2022/12/07 14:13:40;;;;;;;6.40;1.40;;;;;;;;;;4435701;32;20085;-73
2022/12/07 14:16:18;;;;;;;4.03;1.30;;;;;;;;;;4434755;32;20061;-74
2022/12/07 14:18:44;;;;;;;5.18;1.67;;;;;;;;;;4435123;32;20037;-74
2022/12/07 14:21:09;;;;;;;;;;;;;;;;;;4434510;32;20085;-76
2022/12/07 14:23:34;;;;;;;4.37;1.40;;;;;;;;;;4422023;32;19936;-73
2022/12/07 14:26:07;;;;;;;6.12;1.30;;;;;;;;;;4433829;32;20030;-74
2022/12/07 14:28:35;;;;;;;8.93;1.60;;;;;;;;;;4433563;32;20378;-74
2022/12/07 14:31:01;;;;;;;5.47;1.42;;;;;;;;;;4435057;32;20046;-74
2022/12/07 14:33:26;;;;;;;;;;;;;;;;;;4436295;32;20057;-73
2022/12/07 14:35:55;;;;;;;5.95;1.87;;;;;;;;;;4435867;32;20289;-74
2022/12/07 14:38:21;;;;;;;7.53;1.90;;;;;;;;;;4419428;32;20033;-74
2022/12/07 14:40:47;;;;;;;5.05;1.35;;;;;;;;;;4419870;32;20178;-73
2022/12/07 14:43:12;;;;;;;;;;;;;;;;;;4433866;32;20124;-73
2022/12/07 14:45:39;;;;;;;5.00;1.40;;;;;;;;;;4433209;32;19940;-74
2022/12/07 14:48:04;;;;;;;4.32;1.65;;;;;;;;;;4424474;32;20085;-73
2022/12/07 14:50:29;;;;;;;;;;;;;;;;;;4412198;32;20119;-74
2022/12/07 14:53:03;;;;;;;13.70;2.45;;;;;;;;;;4425496;32;19979;-74
2022/12/07 14:55:29;;;;;;;8.70;2.00;;;;;;;;;;4424245;32;20128;-74
2022/12/07 14:57:55;;;;;;;8.13;2.40;;;;;;;;;;4425024;32;20038;-73
2022/12/07 15:00:20;;;;;;;;;;;;;;;;;;4424931;32;20430;-74
2022/12/07 15:02:46;;;;;;;10.10;4.18;;;;;;;;;;4425502;32;20242;-74
2022/12/07 15:05:11;;;;;;;;;;;;;;;;;;4423026;32;20053;-73
2022/12/07 15:07:36;;;;;;;15.30;2.95;;;;;;;;;;4425728;32;19964;-74
2022/12/07 15:10:01;;;;;;;;;;;;;;;;;;4424700;32;20196;-73
2022/12/07 15:12:27;;;;;;;7.53;2.92;;;;;;;;;;4425135;32;19959;-74
2022/12/07 15:14:52;;;;;;;;;;;;;;;;;;4425795;32;20129;-73
2022/12/07 15:17:17;;;;;;;5.47;2.20;;;;;;;;;;4427446;32;19941;-74
2022/12/07 15:19:42;;;;;;;12.50;4.45;;;;;;;;;;4425842;32;20040;-73